Latest Weather Observations for Maria Island

IDT60901

Issued at 5:35 pm EST Tuesday 16 September 2014 (issued every 10 minutes, with the page automatically refreshed every 10 minutes)

About weather observations | Map of Hobart area stations | Latest observations for Hobart area | Other Formats
Station Details ID: 092124 Name: MARIA ISLAND (POINT LESUEUR) Lat: -42.66 Lon: 148.02 Height: 28.0 m
Data from the previous 72 hours. | See also: Recent months at Maria Island
Date/Time
EST
Tmp

°C
App
Tmp
°C
Dew
Point
°C
Rel
Hum
%
Delta-T

°C
Wind Press
QNH
hPa
Press
MSL
hPa
Rain
since
9 am
mm
Dir
 
Spd
km/h
Gust
km/h
Spd
kts
Gust
kts
16/05:30pm 11.7 4.8 7.2 74 2.2 N 33 37 18 20 1008.5 1008.5 0.0
16/05:00pm 11.8 5.3 6.3 69 2.6 N 30 39 16 21 1008.6 1008.6 0.0
16/04:30pm 12.2 6.2 6.9 70 2.5 N 28 33 15 18 1008.7 1008.7 0.0
16/04:00pm 12.1 5.6 6.6 69 2.6 NNE 30 35 16 19 1008.6 1008.6 0.0
16/03:30pm 12.3 5.8 6.6 68 2.7 N 30 35 16 19 1008.7 1008.7 0.0
16/03:00pm 12.3 6.1 6.1 66 2.9 NNE 28 32 15 17 1009.0 1009.0 0.0
16/02:30pm 12.4 7.0 6.5 67 2.8 NNE 24 30 13 16 1009.1 1009.1 0.0
16/02:00pm 12.6 7.2 6.2 65 3.0 NNE 24 32 13 17 1009.2 1009.2 0.0
16/01:30pm 12.9 7.5 6.3 64 3.1 NNE 24 30 13 16 1009.4 1009.4 0.0
16/01:00pm 12.9 7.5 6.5 65 3.1 NNE 24 32 13 17 1009.9 1009.9 0.0
16/12:30pm 12.8 6.5 5.7 62 3.3 N 28 32 15 17 1010.5 1010.5 0.0
16/12:00pm 12.6 6.6 5.5 62 3.3 N 26 33 14 18 1010.9 1010.9 0.0
16/11:30am 11.9 6.3 5.5 65 3.0 N 24 30 13 16 1011.4 1011.4 0.0
16/11:00am 11.8 5.5 5.9 67 2.8 N 28 32 15 17 1011.8 1011.8 0.0
16/10:30am 11.5 6.7 5.8 68 2.7 N 20 26 11 14 1012.4 1012.4 0.0
16/10:00am 11.1 7.3 5.6 69 2.5 N 15 19 8 10 1012.7 1012.7 0.0
16/09:30am 10.0 7.8 6.2 77 1.8 N 7 9 4 5 1013.1 1013.1 0.0
16/09:00am 9.6 6.9 5.6 76 1.8 N 9 11 5 6 1013.4 1013.4 0.0
16/08:30am 9.3 6.5 5.3 76 1.8 N 9 11 5 6 1013.5 1013.5 0.0
16/08:00am 9.2 6.5 5.4 77 1.7 N 9 11 5 6 1013.5 1013.5 0.0
16/07:30am 8.1 5.9 6.1 87 0.9 NW 7 11 4 6 1013.6 1013.6 0.0
16/07:00am 7.3 4.9 5.1 86 1.0 NNW 7 9 4 5 1013.5 1013.5 0.0
16/06:30am 7.6 4.8 5.2 85 1.1 NW 9 11 5 6 1013.4 1013.4 0.0
16/06:00am 8.3 4.6 4.7 78 1.6 N 13 17 7 9 1013.3 1013.3 0.0
16/05:30am 8.5 4.5 4.7 77 1.7 NNW 15 17 8 9 1013.2 1013.2 0.0
16/05:00am 8.0 4.4 4.8 80 1.4 NW 13 15 7 8 1013.4 1013.4 0.0
16/04:30am 8.0 4.3 4.6 79 1.5 NW 13 15 7 8 1013.3 1013.3 0.0
16/04:00am 8.3 4.3 4.7 78 1.6 NNW 15 17 8 9 1013.2 1013.2 0.0
16/03:30am 7.4 5.6 5.4 87 0.9 NNW 4 6 2 3 1013.4 1013.4 0.0
16/03:00am 7.2 6.1 5.0 86 1.0 NNE 0 4 0 2 1013.6 1013.6 0.0
16/02:30am 7.7 6.6 5.3 85 1.1 CALM 0 0 0 0 1013.9 1013.9 0.0
16/02:00am 8.2 7.2 5.7 84 1.1 CALM 0 2 0 1 1014.3 1014.3 0.0
16/01:30am 7.8 5.6 5.1 83 1.2 NW 6 7 3 4 1014.7 1014.7 0.0
16/01:00am 8.4 7.3 5.2 80 1.4 CALM 0 2 0 1 1015.1 1015.1 0.0
16/12:30am 8.6 6.8 5.2 79 1.5 WNW 4 6 2 3 1015.2 1015.2 0.0
16/12:00am 8.9 7.0 5.1 77 1.7 WNW 4 6 2 3 1015.5 1015.5 0.0
 
Date/Time
EST
Tmp

°C
App
Tmp
°C
Dew
Point
°C
Rel
Hum
%
Delta-T

°C
Wind Press
QNH
hPa
Press
MSL
hPa
Rain
since
9 am
mm
Dir
 
Spd
km/h
Gust
km/h
Spd
kts
Gust
kts
15/11:30pm 8.8 6.4 5.4 79 1.5 WNW 7 9 4 5 1015.7 1015.7 0.0
15/11:00pm 8.3 5.6 3.6 72 2.0 NE 7 7 4 4 1016.0 1016.0 0.0
15/10:30pm 8.3 5.6 3.9 74 1.9 ENE 7 9 4 5 1016.2 1016.2 0.0
15/10:00pm 8.7 6.0 3.9 72 2.1 E 7 9 4 5 1016.2 1016.2 0.0
15/09:30pm 8.7 5.7 3.9 72 2.1 ENE 9 11 5 6 1016.4 1016.4 0.0
15/09:00pm 8.6 5.6 4.0 73 2.0 ENE 9 11 5 6 1016.6 1016.6 0.0
15/08:30pm 8.0 4.6 4.0 76 1.7 ENE 11 11 6 6 1016.7 1016.7 0.0
15/08:00pm 7.9 5.2 3.8 75 1.8 E 7 9 4 5 1016.7 1016.7 0.0
15/07:30pm 8.6 5.9 3.8 72 2.1 E 7 9 4 5 1016.6 1016.6 0.0
15/07:00pm 8.9 6.2 3.5 69 2.3 ESE 7 9 4 5 1016.6 1016.6 0.0
15/06:30pm 9.1 5.6 3.5 68 2.4 ESE 11 15 6 8 1016.5 1016.5 0.0
15/06:00pm 9.5 5.7 3.7 67 2.5 SE 13 19 7 10 1016.3 1016.3 0.0
15/05:30pm 9.9 5.8 4.1 67 2.6 SE 15 22 8 12 1016.2 1016.2 0.0
15/05:00pm 10.3 6.1 3.6 63 2.9 SE 15 22 8 12 1016.2 1016.2 0.0
15/04:30pm 10.5 6.3 3.8 63 3.0 SSE 15 19 8 10 1015.9 1015.9 0.0
15/04:00pm 11.4 7.5 3.4 58 3.5 SSE 13 22 7 12 1015.9 1015.9 0.0
15/03:30pm 11.6 6.5 3.1 56 3.7 SSE 19 26 10 14 1015.8 1015.8 0.0
15/03:00pm 11.9 6.8 3.9 58 3.6 S 20 24 11 13 1016.1 1016.1 0.0
15/02:30pm 11.9 6.3 3.7 57 3.7 S 22 26 12 14 1016.2 1016.2 0.0
15/02:00pm 11.6 6.3 2.9 55 3.8 S 20 26 11 14 1016.6 1016.6 0.0
15/01:30pm 11.7 6.3 2.7 54 3.9 S 20 26 11 14 1016.8 1016.8 0.0
15/01:00pm 11.4 5.7 2.9 56 3.7 S 22 26 12 14 1017.1 1017.1 0.0
15/12:30pm 11.5 5.6 4.0 60 3.4 S 24 28 13 15 1017.4 1017.4 0.0
15/12:00pm 11.6 6.5 2.9 55 3.8 S 19 26 10 14 1017.9 1017.9 0.0
15/11:30am 11.7 6.9 2.5 53 4.0 SSW 17 22 9 12 1018.1 1018.1 0.0
15/11:00am 11.6 6.3 2.9 55 3.8 SSW 20 28 11 15 1018.2 1018.2 0.0
15/10:30am 11.1 6.2 2.2 54 3.8 SSW 17 20 9 11 1018.4 1018.4 0.0
15/10:00am 11.3 6.2 2.9 56 3.6 SSW 19 24 10 13 1018.5 1018.5 0.0
15/09:30am 10.7 6.5 1.8 54 3.8 SW 13 15 7 8 1018.4 1018.4 0.0
15/09:00am 10.7 6.2 2.3 56 3.6 SW 15 20 8 11 1018.3 1018.3 0.0
15/08:30am 9.7 4.7 1.6 57 3.4 W 17 20 9 11 1018.3 1018.3 0.0
15/08:00am 8.7 2.9 2.1 63 2.7 W 22 26 12 14 1018.2 1018.2 0.0
15/07:30am 8.2 2.6 1.4 62 2.8 W 20 24 11 13 1018.0 1018.0 0.0
15/07:00am 8.0 2.4 1.4 63 2.7 W 20 24 11 13 1017.8 1017.8 0.0
15/06:30am 7.9 1.9 1.3 63 2.7 W 22 28 12 15 1017.9 1017.9 0.0
15/06:00am 7.7 2.1 1.1 63 2.7 W 20 24 11 13 1017.9 1017.9 0.0
15/05:30am 7.3 1.8 1.6 67 2.3 W 20 24 11 13 1017.7 1017.7 0.0
15/05:00am 7.4 1.8 1.3 65 2.5 WNW 20 22 11 12 1017.7 1017.7 0.0
15/04:30am 7.8 3.6 1.4 64 2.6 W 13 20 7 11 1017.7 1017.7 0.0
15/04:00am 7.5 3.3 1.6 66 2.4 WNW 13 17 7 9 1017.6 1017.6 0.0
15/03:30am 8.4 2.4 1.1 60 3.0 WSW 22 30 12 16 1017.6 1017.6 0.0
15/03:00am 7.3 1.9 1.4 66 2.4 W 19 24 10 13 1017.7 1017.7 0.0
15/02:30am 8.7 2.8 1.4 60 3.0 WSW 22 30 12 16 1017.6 1017.6 0.0
15/02:00am 8.8 2.6 2.2 63 2.8 WSW 24 30 13 16 1017.6 1017.6 0.0
15/01:30am 8.6 3.4 2.2 64 2.7 WSW 19 28 10 15 1018.0 1018.0 0.0
15/01:00am 8.8 3.6 2.4 64 2.7 W 19 26 10 14 1018.4 1018.4 0.0
15/12:30am 8.0 3.7 1.2 62 2.8 W 13 17 7 9 1018.3 1018.3 0.0
15/12:00am 9.1 3.1 1.3 58 3.2 WSW 22 33 12 18 1018.1 1018.1 0.0
 
Date/Time
EST
Tmp

°C
App
Tmp
°C
Dew
Point
°C
Rel
Hum
%
Delta-T

°C
Wind Press
QNH
hPa
Press
MSL
hPa
Rain
since
9 am
mm
Dir
 
Spd
km/h
Gust
km/h
Spd
kts
Gust
kts
14/11:30pm 9.0 3.6 1.2 58 3.2 WSW 19 26 10 14 1018.2 1018.2 0.0
14/11:00pm 9.2 3.3 1.9 60 3.0 WSW 22 30 12 16 1018.2 1018.2 0.0
14/10:30pm 9.2 3.0 1.9 60 3.0 WSW 24 30 13 16 1018.1 1018.1 0.0
14/10:00pm 9.1 3.1 1.3 58 3.2 WSW 22 32 12 17 1018.2 1018.2 0.0
14/09:30pm 9.5 2.8 1.2 56 3.4 WSW 26 32 14 17 1018.0 1018.0 0.0
14/09:00pm 9.8 3.2 1.9 58 3.3 WSW 26 33 14 18 1018.0 1018.0 0.0
14/08:30pm 9.8 2.8 1.9 58 3.3 SW 28 37 15 20 1017.9 1017.9 0.0
14/08:00pm 10.2 3.3 2.3 58 3.4 SW 28 37 15 20 1017.5 1017.5 0.0
14/07:30pm 10.3 2.9 1.9 56 3.5 SW 30 37 16 20 1017.1 1017.1 0.0
14/07:00pm 10.3 3.5 3.1 61 3.1 SSW 28 32 15 17 1017.1 1017.1 0.0
14/06:30pm 10.7 2.2 3.0 59 3.3 SW 37 44 20 24 1016.5 1016.5 0.0
14/06:00pm 11.3 3.4 1.0 49 4.3 SW 32 39 17 21 1016.2 1016.2 0.0
14/05:30pm 11.7 3.3 1.4 49 4.4 SW 35 44 19 24 1015.7 1015.7 0.0
14/05:00pm 11.8 2.9 3.1 55 3.8 SW 39 48 21 26 1015.5 1015.5 0.0
14/04:30pm 12.4 4.8 3.9 56 3.8 SW 33 43 18 23 1015.2 1015.2 0.0
14/04:00pm 12.7 4.6 3.1 52 4.2 SW 35 43 19 23 1015.0 1015.0 0.0
14/03:46pm 13.4 5.4 1.4 44 5.2 SW 33 52 18 28 1014.7 1014.7 0.0
14/03:30pm 12.9 5.4 3.3 52 4.3 SSW 32 37 17 20 1014.8 1014.8 0.0
14/03:00pm 12.4 3.4 4.6 59 3.6 SSW 41 48 22 26 1014.5 1014.5 0.0
14/02:30pm 11.9 2.6 5.1 63 3.1 SSW 43 50 23 27 1014.3 1014.3 0.0
14/02:00pm 13.4 3.4 1.1 43 5.2 SSW 43 56 23 30 1014.3 1014.3 0.0
14/01:30pm 14.2 6.1 3.4 48 4.9 SSW 35 43 19 23 1014.2 1014.2 0.0
14/01:00pm 13.1 5.2 2.4 48 4.7 SW 33 43 18 23 1014.2 1014.2 0.0
14/12:30pm 13.6 5.8 1.6 44 5.2 SW 32 41 17 22 1014.3 1014.3 0.0
14/12:00pm 14.0 6.6 2.0 44 5.2 SW 30 39 16 21 1014.5 1014.5 0.0
14/11:30am 13.4 4.8 2.6 48 4.8 SW 37 50 20 27 1014.6 1014.6 0.0
14/11:00am 13.2 4.8 1.5 45 5.0 SW 35 52 19 28 1014.3 1014.3 0.0
14/10:30am 13.1 5.2 2.1 47 4.8 SW 33 46 18 25 1014.4 1014.4 0.0
14/10:00am 12.8 5.1 2.4 49 4.5 SW 32 41 17 22 1014.5 1014.5 0.0
14/09:30am 12.4 3.5 3.1 53 4.1 SW 39 56 21 30 1014.6 1014.6 0.0
14/09:00am 12.2 3.0 1.5 48 4.5 WSW 39 54 21 29 1014.5 1014.5 0.0
14/08:46am 11.9 3.3 2.4 52 4.1 SW 37 54 20 29 1014.5 1014.5 0.0
14/08:30am 11.7 5.7 5.3 65 3.0 SW 26 35 14 19 1014.6 1014.6 0.0
14/08:00am 11.2 6.3 6.9 75 2.0 SW 22 28 12 15 1014.2 1014.2 0.0
14/07:30am 10.1 6.9 7.0 81 1.5 SW 13 20 7 11 1013.7 1013.7 0.0
14/07:00am 9.7 7.1 6.1 78 1.7 W 9 11 5 6 1013.4 1013.4 0.0
14/06:30am 9.8 6.1 6.2 78 1.7 WNW 15 20 8 11 1013.1 1013.1 0.0
14/06:00am 10.0 3.8 6.0 76 1.8 NNW 28 33 15 18 1012.3 1012.3 0.0
14/05:30am 9.9 3.0 6.3 78 1.7 N 32 35 17 19 1012.0 1012.0 0.0
14/05:00am 9.9 3.0 6.4 79 1.6 N 32 37 17 20 1011.7 1011.7 0.0
14/04:30am 9.9 2.8 6.6 80 1.5 N 33 43 18 23 1011.9 1011.9 0.0
14/04:00am 10.0 2.9 6.5 79 1.6 N 33 44 18 24 1012.0 1012.0 0.0
14/03:30am 10.3 3.5 6.8 79 1.6 N 32 35 17 19 1012.4 1012.4 0.0
14/03:00am 10.3 4.2 6.6 78 1.7 N 28 35 15 19 1013.1 1013.1 0.0
14/02:30am 11.2 5.7 5.9 70 2.5 NNW 24 30 13 16 1013.7 1013.7 0.0
14/02:00am 10.6 4.6 5.4 70 2.4 NW 26 32 14 17 1014.5 1014.5 0.0
14/01:30am 11.1 6.1 6.5 73 2.2 WNW 22 28 12 15 1015.0 1015.0 0.0
14/01:00am 9.9 7.0 6.3 78 1.7 W 11 15 6 8 1015.7 1015.7 0.0
14/12:30am 11.2 4.3 6.5 73 2.2 WNW 32 37 17 20 1015.2 1015.2 0.0
14/12:00am 11.3 5.1 6.2 71 2.4 NW 28 32 15 17 1015.4 1015.4 0.0
 
Date/Time
EST
Tmp

°C
App
Tmp
°C
Dew
Point
°C
Rel
Hum
%
Delta-T

°C
Wind Press
QNH
hPa
Press
MSL
hPa
Rain
since
9 am
mm
Dir
 
Spd
km/h
Gust
km/h
Spd
kts
Gust
kts
13/11:30pm 11.1 4.9 6.3 72 2.3 WNW 28 33 15 18 1015.7 1015.7 0.0
13/11:00pm 10.6 8.9 5.8 72 2.2 N 4 13 2 7 1016.3 1016.3 0.0
13/10:30pm 11.0 9.7 6.0 71 2.3 NW 2 11 1 6 1016.4 1016.4 0.0
13/10:00pm 11.3 10.3 8.7 84 1.3 WNW 4 7 2 4 1016.7 1016.7 0.0
13/09:30pm 11.7 11.2 9.4 86 1.2 N 2 4 1 2 1016.8 1016.8 0.0
13/09:00pm 11.4 11.2 9.0 85 1.2 CALM 0 0 0 0 1017.1 1017.1 0.0
13/08:30pm 11.7 10.8 9.3 85 1.2 NE 4 4 2 2 1017.2 1017.2 0.0
13/08:00pm 12.0 11.1 9.4 84 1.3 NNW 4 6 2 3 1017.2 1017.2 0.0
13/07:30pm 11.8 10.0 9.4 85 1.2 E 9 15 5 8 1017.1 1017.1 0.0
13/07:00pm 12.3 10.8 9.3 82 1.5 SSE 7 11 4 6 1016.9 1016.9 0.0
13/06:30pm 12.8 10.3 9.6 81 1.6 S 13 17 7 9 1016.8 1016.8 0.0
13/06:00pm 13.7 12.0 8.5 71 2.6 WSW 7 13 4 7 1016.8 1016.8 0.0

Latest Capital City Observations: Canberra | Sydney | Melbourne | Brisbane | Adelaide | Perth | Hobart | Darwin

Other Formats:

Comma delimited format used in spreadsheet applications
http://www.bom.gov.au/fwo/IDT60901/IDT60901.95988.axf

JavaScript Object Notation format (JSON) in row-major order
http://www.bom.gov.au/fwo/IDT60901/IDT60901.95988.json